Time;durP1;ratioP1;P1;durP2;ratioP2;P2;SDS_P1;SDS_P2;PMS_P1;PMS_P2;Temp;Humidity;BMP_temperature;BMP_pressure;BME280_temperature;BME280_humidity;BME280_pressure;Samples;Min_cycle;Max_cycle;Signal;HPM_P1;HPM_P2
2021/12/15 00:00:18;;;;;;;147.85;43.00;;;;;;;;;;5013378;28;97329;-75
2021/12/15 00:02:45;;;;;;;154.88;43.95;;;;;;;;;;5014451;28;95360;-75
2021/12/15 00:05:20;;;;;;;138.80;42.95;;;;;;;;;;5013710;28;97138;-76
2021/12/15 00:07:46;;;;;;;142.52;41.35;;;;;;;;;;5013790;28;97314;-75
2021/12/15 00:10:13;;;;;;;154.43;44.75;;;;;;;;;;5014504;28;95156;-75
2021/12/15 00:12:39;;;;;;;156.82;45.85;;;;;;;;;;5011957;28;97031;-75
2021/12/15 00:15:06;;;;;;;166.13;45.13;;;;;;;;;;5008925;28;97478;-76
2021/12/15 00:17:32;;;;;;;157.02;46.17;;;;;;;;;;5010096;28;95133;-75
2021/12/15 00:19:59;;;;;;;151.98;45.25;;;;;;;;;;5013272;28;97037;-75
2021/12/15 00:22:25;;;;;;;138.70;44.72;;;;;;;;;;5014066;28;96334;-75
2021/12/15 00:24:51;;;;;;;144.50;46.92;;;;;;;;;;5013176;28;96378;-75
2021/12/15 00:27:18;;;;;;;136.80;44.72;;;;;;;;;;5012732;28;97313;-75
2021/12/15 00:29:44;;;;;;;145.73;45.25;;;;;;;;;;5013126;28;95284;-75
2021/12/15 00:32:10;;;;;;;147.10;45.25;;;;;;;;;;5013267;28;96780;-75
2021/12/15 00:34:38;;;;;;;149.10;45.38;;;;;;;;;;5013856;28;97446;-74
2021/12/15 00:37:05;;;;;;;133.80;45.58;;;;;;;;;;5013521;28;95313;-75
2021/12/15 00:39:31;;;;;;;150.95;46.65;;;;;;;;;;5016658;28;97357;-75
2021/12/15 00:41:59;;;;;;;154.60;47.85;;;;;;;;;;5010243;28;95357;-75
2021/12/15 00:44:25;;;;;;;150.15;48.55;;;;;;;;;;5013071;28;96788;-75
2021/12/15 00:46:52;;;;;;;141.93;45.45;;;;;;;;;;5012750;28;97299;-75
2021/12/15 00:49:20;;;;;;;144.70;47.80;;;;;;;;;;5013273;28;95266;-75
2021/12/15 00:51:46;;;;;;;126.32;45.40;;;;;;;;;;5013627;28;97153;-75
2021/12/15 00:54:13;;;;;;;150.43;46.72;;;;;;;;;;5012945;28;97771;-77
2021/12/15 00:56:39;;;;;;;146.07;45.35;;;;;;;;;;5012857;28;95323;-76
2021/12/15 00:59:06;;;;;;;137.27;45.67;;;;;;;;;;5010859;28;96902;-76
2021/12/15 01:01:34;;;;;;;130.68;45.15;;;;;;;;;;5016107;28;97548;-75
2021/12/15 01:04:02;;;;;;;139.25;47.00;;;;;;;;;;5012446;28;96197;-75
2021/12/15 01:06:29;;;;;;;140.38;46.83;;;;;;;;;;5013507;28;97896;-76
2021/12/15 01:08:59;;;;;;;152.27;47.78;;;;;;;;;;5012790;28;95326;-75
2021/12/15 01:14:34;;;;;;;136.02;45.85;;;;;;;;;;4979578;28;97406;-75
2021/12/15 01:19:52;;;;;;;130.43;44.67;;;;;;;;;;5013225;28;96785;-76
2021/12/15 01:22:29;;;;;;;128.85;46.90;;;;;;;;;;5015206;28;96906;-75
2021/12/15 01:24:58;;;;;;;132.07;45.75;;;;;;;;;;5012426;28;97224;-75
2021/12/15 01:27:24;;;;;;;123.90;45.47;;;;;;;;;;5012744;28;97833;-75
2021/12/15 01:29:51;;;;;;;130.80;47.17;;;;;;;;;;5012467;28;95366;-76
2021/12/15 01:32:17;;;;;;;127.88;48.65;;;;;;;;;;5012967;28;97233;-76
2021/12/15 01:34:44;;;;;;;130.00;46.20;;;;;;;;;;5012971;28;97277;-75
2021/12/15 01:37:12;;;;;;;141.50;46.53;;;;;;;;;;5011988;28;96099;-75
2021/12/15 01:39:38;;;;;;;133.57;47.47;;;;;;;;;;5013074;28;96175;-76
2021/12/15 01:42:05;;;;;;;121.13;46.53;;;;;;;;;;5012301;28;97679;-76
2021/12/15 01:47:02;;;;;;;118.93;45.85;;;;;;;;;;5000466;28;97730;-76
2021/12/15 01:49:48;;;;;;;124.68;47.42;;;;;;;;;;4994523;28;95333;-75
2021/12/15 01:52:20;;;;;;;133.57;46.25;;;;;;;;;;5002087;28;97855;-76
2021/12/15 01:54:46;;;;;;;;;;;;;;;;;;5010356;28;97671;-75
2021/12/15 01:57:13;;;;;;;114.22;44.72;;;;;;;;;;5011425;28;118513;-75
2021/12/15 01:59:40;;;;;;;137.13;47.78;;;;;;;;;;5012471;28;96780;-76
2021/12/15 02:02:06;;;;;;;133.68;47.05;;;;;;;;;;5012042;28;97276;-76
2021/12/15 02:04:33;;;;;;;130.07;47.95;;;;;;;;;;5012079;28;95246;-74
2021/12/15 02:07:01;;;;;;;132.15;48.05;;;;;;;;;;5006980;28;96869;-75
2021/12/15 02:10:01;;;;;;;122.97;45.08;;;;;;;;;;5011765;28;95320;-74
2021/12/15 02:12:25;;;;;;;133.35;47.55;;;;;;;;;;5010847;28;96790;-74
2021/12/15 02:14:52;;;;;;;121.00;47.47;;;;;;;;;;5002791;28;97233;-75
2021/12/15 02:17:19;;;;;;;122.85;46.53;;;;;;;;;;5012177;28;95338;-74
2021/12/15 02:19:46;;;;;;;125.07;46.42;;;;;;;;;;5010726;28;96800;-74
2021/12/15 02:22:12;;;;;;;125.22;47.20;;;;;;;;;;5012026;28;97472;-74
2021/12/15 02:24:40;;;;;;;136.90;48.60;;;;;;;;;;5012370;28;95214;-74
2021/12/15 02:27:08;;;;;;;128.35;48.50;;;;;;;;;;5011025;28;95991;-75
2021/12/15 02:29:39;;;;;;;126.45;47.45;;;;;;;;;;5014413;28;97458;-74
2021/12/15 02:32:22;;;;;;;129.52;48.45;;;;;;;;;;5011692;28;96734;-74
2021/12/15 02:37:14;;;;;;;132.50;48.85;;;;;;;;;;5011965;28;97241;-75
2021/12/15 02:37:53;;;;;;;133.27;49.00;;;;;;;;;;5013098;28;95375;-74
2021/12/15 02:40:20;;;;;;;134.48;47.47;;;;;;;;;;5007318;28;96729;-74
2021/12/15 02:42:48;;;;;;;143.50;48.45;;;;;;;;;;5012050;28;97311;-74
2021/12/15 02:45:17;;;;;;;133.65;47.45;;;;;;;;;;5011111;28;95289;-75
2021/12/15 02:47:43;;;;;;;131.95;48.38;;;;;;;;;;5011378;28;96842;-75
2021/12/15 02:50:15;;;;;;;119.32;45.08;;;;;;;;;;5000831;28;97042;-75
2021/12/15 02:52:41;;;;;;;127.72;46.92;;;;;;;;;;5014237;28;95290;-74
2021/12/15 02:55:08;;;;;;;125.78;48.15;;;;;;;;;;5011680;28;97271;-75
2021/12/15 02:57:35;;;;;;;133.13;47.65;;;;;;;;;;5011872;28;96226;-74
2021/12/15 03:00:16;;;;;;;138.30;48.20;;;;;;;;;;5009415;28;95473;-74
2021/12/15 03:03:10;;;;;;;135.85;48.17;;;;;;;;;;5011868;28;97781;-74
2021/12/15 03:05:42;;;;;;;135.48;47.05;;;;;;;;;;5012138;28;97507;-75
2021/12/15 03:16:06;;;;;;;134.98;48.45;;;;;;;;;;5018268;28;96671;-75
2021/12/15 03:18:33;;;;;;;134.85;49.83;;;;;;;;;;5014900;28;95309;-74
2021/12/15 03:21:10;;;;;;;141.30;48.33;;;;;;;;;;5013658;28;97046;-74
2021/12/15 03:23:40;;;;;;;139.50;48.25;;;;;;;;;;5015163;28;97732;-74
2021/12/15 03:26:07;;;;;;;127.13;47.73;;;;;;;;;;5013572;28;95326;-75
2021/12/15 03:34:14;;;;;;;129.80;47.45;;;;;;;;;;5014281;28;95291;-75
2021/12/15 03:39:22;;;;;;;135.65;49.30;;;;;;;;;;4994836;28;95229;-75
2021/12/15 03:41:56;;;;;;;119.45;45.25;;;;;;;;;;4994617;28;98250;-75
2021/12/15 03:44:22;;;;;;;136.73;49.38;;;;;;;;;;5012194;28;97323;-74
2021/12/15 03:46:49;;;;;;;122.20;48.35;;;;;;;;;;5014456;28;95283;-75
2021/12/15 03:49:15;;;;;;;128.32;47.63;;;;;;;;;;5014291;28;95470;-75
2021/12/15 03:51:42;;;;;;;127.50;47.42;;;;;;;;;;5013827;28;97605;-75
2021/12/15 03:54:08;;;;;;;126.55;46.95;;;;;;;;;;5014628;28;95143;-74
2021/12/15 03:56:36;;;;;;;127.20;47.80;;;;;;;;;;5014141;28;96771;-75
2021/12/15 03:59:03;;;;;;;130.05;47.92;;;;;;;;;;5017477;28;97307;-75
2021/12/15 04:01:29;;;;;;;126.00;49.08;;;;;;;;;;4999446;28;96803;-75
2021/12/15 04:03:56;;;;;;;125.75;47.45;;;;;;;;;;5012552;28;97318;-75
2021/12/15 04:06:25;;;;;;;131.23;46.10;;;;;;;;;;5014345;28;95315;-75
2021/12/15 04:08:52;;;;;;;133.07;47.67;;;;;;;;;;5014431;28;97163;-74
2021/12/15 04:11:20;;;;;;;142.32;46.97;;;;;;;;;;5012903;28;97346;-75
2021/12/15 04:13:47;;;;;;;123.80;46.50;;;;;;;;;;5014032;28;95335;-75
2021/12/15 04:16:39;;;;;;;126.13;45.97;;;;;;;;;;5013573;28;97192;-75
2021/12/15 04:19:10;;;;;;;120.55;45.38;;;;;;;;;;5013486;28;97324;-75
2021/12/15 04:21:38;;;;;;;126.95;47.47;;;;;;;;;;5009795;28;95668;-75
2021/12/15 04:24:05;;;;;;;120.80;46.95;;;;;;;;;;5013499;28;96259;-75
2021/12/15 04:26:31;;;;;;;132.95;47.40;;;;;;;;;;5014337;28;95191;-75
2021/12/15 04:28:58;;;;;;;126.53;46.17;;;;;;;;;;5012406;28;96628;-74
2021/12/15 04:31:27;;;;;;;120.43;44.92;;;;;;;;;;4998321;28;97066;-75
2021/12/15 04:33:55;;;;;;;119.13;44.65;;;;;;;;;;4994140;28;95347;-75
2021/12/15 04:36:24;;;;;;;117.13;46.35;;;;;;;;;;5006201;28;95574;-75
2021/12/15 04:38:51;;;;;;;125.97;47.50;;;;;;;;;;5013352;28;97655;-74
2021/12/15 04:41:19;;;;;;;118.15;44.72;;;;;;;;;;5010430;28;95419;-75
2021/12/15 04:44:09;;;;;;;123.55;43.13;;;;;;;;;;5014052;28;96862;-75
2021/12/15 04:46:36;;;;;;;120.55;44.20;;;;;;;;;;5012642;28;96235;-75
2021/12/15 04:49:04;;;;;;;122.45;47.47;;;;;;;;;;5012642;28;96775;-75
2021/12/15 04:51:31;;;;;;;117.28;43.33;;;;;;;;;;5011603;28;96224;-75
2021/12/15 04:53:58;;;;;;;122.18;43.95;;;;;;;;;;5012034;28;95374;-75
2021/12/15 04:56:25;;;;;;;130.55;46.17;;;;;;;;;;5013676;28;97236;-75
2021/12/15 04:58:53;;;;;;;126.95;45.60;;;;;;;;;;5013415;28;97258;-75
2021/12/15 05:01:20;;;;;;;119.07;44.50;;;;;;;;;;5003017;28;95428;-75
2021/12/15 05:03:47;;;;;;;119.47;46.00;;;;;;;;;;4995417;28;97166;-75
2021/12/15 05:06:13;;;;;;;125.57;46.70;;;;;;;;;;5015560;28;97281;-75
2021/12/15 05:08:40;;;;;;;122.00;45.35;;;;;;;;;;5013416;28;96853;-75
2021/12/15 05:11:07;;;;;;;117.28;45.20;;;;;;;;;;5012779;28;97193;-75
2021/12/15 05:13:34;;;;;;;123.93;45.55;;;;;;;;;;5012782;28;95255;-75
2021/12/15 05:16:02;;;;;;;127.38;43.58;;;;;;;;;;5013188;28;96901;-74
2021/12/15 05:18:31;;;;;;;125.28;45.15;;;;;;;;;;5013052;28;97101;-74
2021/12/15 05:20:59;;;;;;;125.63;45.28;;;;;;;;;;5006158;28;96440;-75
2021/12/15 05:23:29;;;;;;;123.20;45.78;;;;;;;;;;5013068;28;96886;-75
2021/12/15 05:25:57;;;;;;;127.90;47.25;;;;;;;;;;5012805;28;97316;-74
2021/12/15 05:28:23;;;;;;;129.60;46.25;;;;;;;;;;5014513;28;95178;-75
2021/12/15 05:30:50;;;;;;;119.32;45.22;;;;;;;;;;5011276;28;95893;-74
2021/12/15 05:33:16;;;;;;;137.30;45.92;;;;;;;;;;5012498;28;95333;-75
2021/12/15 05:35:42;;;;;;;129.55;46.85;;;;;;;;;;5012766;28;96842;-74
2021/12/15 05:38:09;;;;;;;132.07;45.30;;;;;;;;;;5011875;28;97353;-74
2021/12/15 05:40:36;;;;;;;122.38;44.35;;;;;;;;;;5009418;28;95321;-75
2021/12/15 05:43:03;;;;;;;126.47;45.58;;;;;;;;;;5007356;28;97137;-74
2021/12/15 05:45:31;;;;;;;126.20;45.47;;;;;;;;;;5010205;28;97490;-74
2021/12/15 05:47:58;;;;;;;123.50;45.53;;;;;;;;;;5004970;28;95033;-74
2021/12/15 05:50:27;;;;;;;117.80;43.97;;;;;;;;;;5008279;28;97154;-74
2021/12/15 05:52:54;;;;;;;123.40;44.60;;;;;;;;;;5012267;28;95371;-74
2021/12/15 05:55:21;;;;;;;131.15;46.25;;;;;;;;;;5010998;28;96776;-74
2021/12/15 05:57:48;;;;;;;117.85;44.65;;;;;;;;;;5000891;28;97203;-74
2021/12/15 06:00:16;;;;;;;122.47;42.63;;;;;;;;;;4996886;28;95368;-74
2021/12/15 06:02:42;;;;;;;121.32;43.67;;;;;;;;;;5011177;28;96629;-74
2021/12/15 06:05:10;;;;;;;123.50;43.85;;;;;;;;;;5010822;28;97524;-74
2021/12/15 06:07:36;;;;;;;133.20;45.03;;;;;;;;;;5008958;28;95290;-76
2021/12/15 06:10:04;;;;;;;136.63;45.08;;;;;;;;;;5027606;28;96301;-75
2021/12/15 06:12:30;;;;;;;128.88;46.40;;;;;;;;;;5012308;28;95368;-75
2021/12/15 06:14:57;;;;;;;130.88;44.00;;;;;;;;;;5012258;28;96908;-75
2021/12/15 06:17:26;;;;;;;129.55;44.50;;;;;;;;;;5006104;28;97318;-74
2021/12/15 06:19:53;;;;;;;131.98;43.72;;;;;;;;;;5012605;28;95378;-74
2021/12/15 06:22:24;;;;;;;136.73;44.85;;;;;;;;;;5012120;28;96860;-75
2021/12/15 06:24:51;;;;;;;123.57;44.63;;;;;;;;;;5011660;28;97297;-74
2021/12/15 06:27:19;;;;;;;137.65;45.83;;;;;;;;;;5010845;28;96430;-74
2021/12/15 06:29:47;;;;;;;134.40;45.17;;;;;;;;;;5012067;28;95680;-74
2021/12/15 06:32:14;;;;;;;136.38;44.22;;;;;;;;;;5014242;28;97339;-74
2021/12/15 06:34:41;;;;;;;135.10;44.53;;;;;;;;;;5012251;28;96887;-75
2021/12/15 06:37:08;;;;;;;151.02;45.45;;;;;;;;;;5010381;28;97251;-75
2021/12/15 06:39:35;;;;;;;145.95;45.58;;;;;;;;;;4997864;28;95288;-74
2021/12/15 06:42:01;;;;;;;125.20;42.42;;;;;;;;;;4993857;28;97076;-74
2021/12/15 06:44:27;;;;;;;142.18;43.55;;;;;;;;;;5011410;28;97573;-74
2021/12/15 06:47:22;;;;;;;142.20;44.10;;;;;;;;;;5010980;28;96275;-74
2021/12/15 07:00:31;;;;;;;157.85;45.80;;;;;;;;;;5008926;28;95339;-74
2021/12/15 07:02:58;;;;;;;164.70;46.50;;;;;;;;;;5010857;28;95974;-74
2021/12/15 07:05:25;;;;;;;173.82;45.17;;;;;;;;;;5010995;28;95087;-74
2021/12/15 07:07:52;;;;;;;154.35;45.13;;;;;;;;;;5010051;28;95431;-74
2021/12/15 07:10:21;;;;;;;168.52;45.47;;;;;;;;;;5005015;28;96875;-73
2021/12/15 07:12:48;;;;;;;176.00;46.00;;;;;;;;;;5010329;28;97265;-74
2021/12/15 07:15:14;;;;;;;161.25;45.33;;;;;;;;;;5011069;28;95443;-74
2021/12/15 07:17:44;;;;;;;174.77;45.88;;;;;;;;;;5014364;28;97103;-74
2021/12/15 07:23:08;;;;;;;171.93;44.05;;;;;;;;;;5004702;28;96682;-74
2021/12/15 07:25:35;;;;;;;173.65;46.28;;;;;;;;;;5011103;28;97414;-74
2021/12/15 15:52:24;;;;;;;58.25;28.35;;;;;;;;;;5070199;27;1272175;-74
2021/12/15 15:54:50;;;;;;;57.28;28.67;;;;;;;;;;5087713;27;97812;-72
2021/12/15 15:57:18;;;;;;;53.22;26.90;;;;;;;;;;5088221;27;95411;-73
2021/12/15 15:59:44;;;;;;;47.47;26.60;;;;;;;;;;5085391;27;95559;-73
2021/12/15 16:02:11;;;;;;;59.95;27.55;;;;;;;;;;5088441;27;97183;-73
2021/12/15 16:05:22;;;;;;;50.60;26.75;;;;;;;;;;5078441;27;96795;-74
2021/12/15 16:07:49;;;;;;;58.67;26.25;;;;;;;;;;5054707;27;97387;-74
2021/12/15 16:10:20;;;;;;;60.15;27.38;;;;;;;;;;5059464;27;95364;-74
2021/12/15 16:12:47;;;;;;;49.80;26.87;;;;;;;;;;5055532;27;96671;-73
2021/12/15 16:15:14;;;;;;;55.00;26.75;;;;;;;;;;5064151;27;97738;-74
2021/12/15 16:17:53;;;;;;;58.42;26.50;;;;;;;;;;5056361;27;95390;-74
2021/12/15 16:20:24;;;;;;;49.38;26.48;;;;;;;;;;5054200;27;96825;-74
2021/12/15 16:22:52;;;;;;;56.00;26.70;;;;;;;;;;5053037;27;97277;-74
2021/12/15 16:25:22;;;;;;;52.42;26.65;;;;;;;;;;5056406;27;95196;-74
2021/12/15 16:27:50;;;;;;;46.78;25.33;;;;;;;;;;5051975;27;98593;-74
2021/12/15 16:30:20;;;;;;;50.30;25.58;;;;;;;;;;5056041;27;95363;-74
2021/12/15 16:32:48;;;;;;;53.10;25.90;;;;;;;;;;5058070;27;96598;-73
2021/12/15 16:35:20;;;;;;;46.28;25.75;;;;;;;;;;5053533;27;97465;-73
2021/12/15 16:37:47;;;;;;;49.07;25.67;;;;;;;;;;5054330;27;95646;-73
2021/12/15 16:40:14;;;;;;;54.03;26.40;;;;;;;;;;5058302;27;97071;-73
2021/12/15 16:42:58;;;;;;;53.00;25.67;;;;;;;;;;5051356;27;97292;-73
2021/12/15 16:45:25;;;;;;;47.95;25.65;;;;;;;;;;5054625;27;95415;-73
2021/12/15 16:47:51;;;;;;;50.08;25.45;;;;;;;;;;5052693;27;96724;-73
2021/12/15 16:50:17;;;;;;;52.10;27.60;;;;;;;;;;5051289;27;96118;-73
2021/12/15 16:52:45;;;;;;;47.15;26.92;;;;;;;;;;5056895;27;96834;-73
2021/12/15 16:55:14;;;;;;;57.40;26.17;;;;;;;;;;5068106;27;97395;-74
2021/12/15 16:57:49;;;;;;;50.47;26.73;;;;;;;;;;5059439;27;96865;-73
2021/12/15 17:00:23;;;;;;;48.70;26.98;;;;;;;;;;5063026;27;96743;-76
2021/12/15 17:02:55;;;;;;;46.53;25.15;;;;;;;;;;5057867;27;97882;-73
2021/12/15 17:05:27;;;;;;;50.17;26.17;;;;;;;;;;5047275;27;95277;-73
2021/12/15 17:07:56;;;;;;;46.80;27.10;;;;;;;;;;5047622;27;97174;-74
2021/12/15 17:10:44;;;;;;;48.70;26.67;;;;;;;;;;5061935;27;97130;-73
2021/12/15 17:13:13;;;;;;;58.15;26.40;;;;;;;;;;5057682;27;97168;-73
2021/12/15 17:16:06;;;;;;;54.80;27.33;;;;;;;;;;5042633;27;96189;-73
2021/12/15 17:18:30;;;;;;;49.05;26.23;;;;;;;;;;5047962;27;95555;-73
2021/12/15 17:23:15;;;;;;;56.00;26.77;;;;;;;;;;5048912;27;95456;-73
2021/12/15 17:25:54;;;;;;;52.47;28.58;;;;;;;;;;5027794;28;96783;-73
2021/12/15 17:28:21;;;;;;;50.75;26.27;;;;;;;;;;5028071;28;95548;-74
2021/12/15 17:30:49;;;;;;;51.50;26.90;;;;;;;;;;5027365;27;96268;-73
2021/12/15 17:33:27;;;;;;;50.17;26.85;;;;;;;;;;5026137;27;97226;-74
2021/12/15 17:35:55;;;;;;;50.15;26.77;;;;;;;;;;5027923;28;95798;-73
2021/12/15 17:38:47;;;;;;;52.72;26.33;;;;;;;;;;5028456;27;98734;-73
2021/12/15 17:41:15;;;;;;;52.13;25.23;;;;;;;;;;5026622;28;96095;-75
2021/12/15 17:44:02;;;;;;;42.58;24.15;;;;;;;;;;5030930;27;95373;-75
2021/12/15 17:46:28;;;;;;;;;;;;;;;;;;5027869;28;97297;-74
2021/12/15 17:48:56;;;;;;;42.10;24.20;;;;;;;;;;5028048;28;115704;-74
2021/12/15 17:51:36;;;;;;;53.90;24.33;;;;;;;;;;5026641;28;97164;-74
2021/12/15 17:54:03;;;;;;;45.92;22.67;;;;;;;;;;5026647;28;97316;-74
2021/12/15 17:56:29;;;;;;;44.90;24.35;;;;;;;;;;5026181;27;95464;-74
2021/12/15 17:58:56;;;;;;;48.30;23.73;;;;;;;;;;5027377;28;97251;-75
2021/12/15 18:01:23;;;;;;;43.70;23.08;;;;;;;;;;5023587;28;97107;-74
2021/12/15 18:03:49;;;;;;;48.90;23.45;;;;;;;;;;5027646;28;95397;-74
2021/12/15 18:06:16;;;;;;;50.85;24.45;;;;;;;;;;5029757;28;96762;-75
2021/12/15 18:08:43;;;;;;;42.58;23.13;;;;;;;;;;5027479;27;95588;-74
2021/12/15 18:11:10;;;;;;;42.10;23.27;;;;;;;;;;5027246;28;96816;-74
2021/12/15 18:13:50;;;;;;;50.30;24.20;;;;;;;;;;5024495;27;97248;-75
2021/12/15 18:16:17;;;;;;;48.42;24.40;;;;;;;;;;5027092;27;95286;-75
2021/12/15 18:18:44;;;;;;;50.03;23.73;;;;;;;;;;5025092;28;96803;-75
2021/12/15 18:21:13;;;;;;;47.50;25.20;;;;;;;;;;5022628;27;97258;-74
2021/12/15 18:23:40;;;;;;;51.22;23.13;;;;;;;;;;5036554;27;95410;-73
2021/12/15 18:26:06;;;;;;;42.08;23.10;;;;;;;;;;5037875;27;97116;-74
2021/12/15 18:28:33;;;;;;;42.65;22.45;;;;;;;;;;5047488;27;97158;-74
2021/12/15 18:31:02;;;;;;;45.05;23.30;;;;;;;;;;5038761;27;96986;-74
2021/12/15 18:33:30;;;;;;;46.03;24.08;;;;;;;;;;5030118;27;97721;-74
2021/12/15 18:35:57;;;;;;;48.05;23.63;;;;;;;;;;5024893;28;95282;-74
2021/12/15 18:38:24;;;;;;;47.22;23.98;;;;;;;;;;5031964;28;97083;-77
2021/12/15 18:40:53;;;;;;;43.35;22.33;;;;;;;;;;5011432;28;97388;-74
2021/12/15 18:43:19;;;;;;;45.28;22.48;;;;;;;;;;5026042;28;96491;-74
2021/12/15 18:45:46;;;;;;;52.08;22.15;;;;;;;;;;5025135;28;97247;-75
2021/12/15 18:48:12;;;;;;;51.60;25.10;;;;;;;;;;5031142;28;97099;-75
2021/12/15 18:50:49;;;;;;;71.60;37.90;;;;;;;;;;5034865;27;96111;-75
2021/12/15 18:53:16;;;;;;;54.67;29.80;;;;;;;;;;5027228;27;97306;-74
2021/12/15 18:55:43;;;;;;;50.47;24.23;;;;;;;;;;5021840;27;96207;-75
2021/12/15 18:58:09;;;;;;;46.80;22.50;;;;;;;;;;5021320;28;97128;-75
2021/12/15 19:00:41;;;;;;;49.40;23.58;;;;;;;;;;5024444;28;97272;-74
2021/12/15 19:03:13;;;;;;;50.65;22.38;;;;;;;;;;5024914;27;95814;-75
2021/12/15 19:05:40;;;;;;;47.67;22.85;;;;;;;;;;5006873;28;96561;-74
2021/12/15 19:08:08;;;;;;;48.70;22.70;;;;;;;;;;5014985;28;95992;-74
2021/12/15 19:10:35;;;;;;;49.47;23.77;;;;;;;;;;5024137;27;96711;-75
2021/12/15 19:13:03;;;;;;;55.05;23.90;;;;;;;;;;5023173;27;96605;-74
2021/12/15 19:15:30;;;;;;;52.50;24.33;;;;;;;;;;5021449;28;95201;-75
2021/12/15 19:17:56;;;;;;;46.28;23.60;;;;;;;;;;5020629;28;96718;-74
2021/12/15 19:20:24;;;;;;;47.85;22.75;;;;;;;;;;5015126;28;97333;-74
2021/12/15 19:22:51;;;;;;;55.30;23.42;;;;;;;;;;5028368;28;95338;-74
2021/12/15 19:25:18;;;;;;;52.75;23.58;;;;;;;;;;5030967;28;96893;-74
2021/12/15 19:27:44;;;;;;;50.13;23.90;;;;;;;;;;5032252;28;97536;-74
2021/12/15 19:30:19;;;;;;;57.13;25.73;;;;;;;;;;5031685;28;95330;-75
2021/12/15 19:32:45;;;;;;;47.67;23.38;;;;;;;;;;5031122;28;96714;-74
2021/12/15 19:35:12;;;;;;;49.78;23.85;;;;;;;;;;5025078;27;96046;-74
2021/12/15 19:37:39;;;;;;;49.15;23.13;;;;;;;;;;5019496;28;96759;-74
2021/12/15 19:40:08;;;;;;;45.05;23.80;;;;;;;;;;5027010;28;97420;-74
2021/12/15 19:42:36;;;;;;;50.78;25.27;;;;;;;;;;5023679;28;95425;-74
2021/12/15 19:45:06;;;;;;;53.22;24.90;;;;;;;;;;5014546;28;97055;-75
2021/12/15 19:47:33;;;;;;;60.58;24.85;;;;;;;;;;5015987;28;97535;-74
2021/12/15 19:49:59;;;;;;;56.42;24.60;;;;;;;;;;5030036;28;96332;-74
2021/12/15 19:52:26;;;;;;;44.78;22.40;;;;;;;;;;5024623;28;96646;-74
2021/12/15 19:54:52;;;;;;;54.08;23.27;;;;;;;;;;5010319;28;96939;-74
2021/12/15 19:57:18;;;;;;;49.10;24.52;;;;;;;;;;5029701;28;97086;-74
2021/12/15 19:59:45;;;;;;;53.08;23.58;;;;;;;;;;5028704;28;96150;-74
2021/12/15 20:02:12;;;;;;;48.60;23.98;;;;;;;;;;5014095;28;95167;-74
2021/12/15 20:04:38;;;;;;;53.78;23.20;;;;;;;;;;5031362;28;96475;-74
2021/12/15 20:07:08;;;;;;;54.85;24.45;;;;;;;;;;5031347;28;97384;-74
2021/12/15 20:09:35;;;;;;;51.47;23.95;;;;;;;;;;5031295;28;95591;-74
2021/12/15 20:12:03;;;;;;;54.42;24.52;;;;;;;;;;5030413;28;97068;-74
2021/12/15 20:14:29;;;;;;;57.65;25.25;;;;;;;;;;5030819;28;97330;-74
2021/12/15 20:16:57;;;;;;;60.80;25.10;;;;;;;;;;5034394;28;95370;-75
2021/12/15 20:19:24;;;;;;;53.80;24.60;;;;;;;;;;5031362;28;97221;-74
2021/12/15 20:21:53;;;;;;;51.97;25.05;;;;;;;;;;5029836;28;95369;-74
2021/12/15 20:24:22;;;;;;;64.55;25.75;;;;;;;;;;5031517;28;96840;-74
2021/12/15 20:26:49;;;;;;;55.63;24.48;;;;;;;;;;5030067;28;97467;-74
2021/12/15 20:29:16;;;;;;;53.42;25.05;;;;;;;;;;5030871;28;95255;-74
2021/12/15 20:31:42;;;;;;;54.85;24.58;;;;;;;;;;5031707;28;96391;-74
2021/12/15 20:34:09;;;;;;;65.80;29.30;;;;;;;;;;5030359;27;96969;-74
2021/12/15 20:36:36;;;;;;;55.75;26.30;;;;;;;;;;5030482;28;96523;-75
2021/12/15 20:39:07;;;;;;;56.33;25.65;;;;;;;;;;5035063;28;96935;-75
2021/12/15 20:41:34;;;;;;;56.92;25.23;;;;;;;;;;5031676;28;95125;-74
2021/12/15 20:44:01;;;;;;;55.97;24.52;;;;;;;;;;5030680;27;97040;-74
2021/12/15 20:46:27;;;;;;;58.33;25.25;;;;;;;;;;5031891;28;97228;-75
2021/12/15 20:48:54;;;;;;;64.18;25.80;;;;;;;;;;5031306;28;95402;-75
2021/12/15 20:51:21;;;;;;;57.92;25.17;;;;;;;;;;5032004;28;96819;-74
2021/12/15 20:53:49;;;;;;;61.72;26.38;;;;;;;;;;5031170;28;97245;-74
2021/12/15 20:56:15;;;;;;;59.33;26.25;;;;;;;;;;5030005;27;95393;-74
2021/12/15 20:58:42;;;;;;;65.22;27.42;;;;;;;;;;5031587;28;96742;-74
2021/12/15 21:01:10;;;;;;;68.30;27.42;;;;;;;;;;5033382;28;97444;-74
2021/12/15 21:03:37;;;;;;;71.43;28.40;;;;;;;;;;5030721;28;96855;-74
2021/12/15 21:06:09;;;;;;;73.85;28.00;;;;;;;;;;5023525;27;97389;-74
2021/12/15 21:08:35;;;;;;;72.70;26.27;;;;;;;;;;5029556;28;96067;-74
2021/12/15 21:11:07;;;;;;;77.65;29.23;;;;;;;;;;5030574;28;96702;-74
2021/12/15 21:13:36;;;;;;;85.35;29.83;;;;;;;;;;5030441;28;97707;-74
2021/12/15 21:16:02;;;;;;;79.70;30.48;;;;;;;;;;5030931;28;95241;-74
2021/12/15 21:18:28;;;;;;;82.35;30.88;;;;;;;;;;5030266;28;96789;-74
2021/12/15 21:20:55;;;;;;;90.57;32.72;;;;;;;;;;5030662;28;96264;-74
2021/12/15 21:23:21;;;;;;;94.93;31.55;;;;;;;;;;5034190;28;95349;-74
2021/12/15 21:25:49;;;;;;;88.80;31.63;;;;;;;;;;5030282;28;97221;-75
2021/12/15 21:28:20;;;;;;;88.10;30.50;;;;;;;;;;5031549;28;95367;-74
2021/12/15 21:30:47;;;;;;;99.00;33.47;;;;;;;;;;5032200;28;97007;-74
2021/12/15 21:33:13;;;;;;;96.07;32.42;;;;;;;;;;5031067;28;97324;-74
2021/12/15 21:35:40;;;;;;;96.53;34.05;;;;;;;;;;5032093;28;96608;-74
2021/12/15 21:38:07;;;;;;;93.50;33.22;;;;;;;;;;5031319;28;97208;-74
2021/12/15 21:40:35;;;;;;;90.53;32.58;;;;;;;;;;5031652;28;97583;-74
2021/12/15 21:43:01;;;;;;;100.63;33.13;;;;;;;;;;5034706;28;95321;-75
2021/12/15 21:45:29;;;;;;;92.55;32.50;;;;;;;;;;5030388;28;97320;-74
2021/12/15 21:47:57;;;;;;;92.90;32.33;;;;;;;;;;5026951;28;95328;-74
2021/12/15 21:50:23;;;;;;;116.20;37.22;;;;;;;;;;5031305;28;96859;-73
2021/12/15 21:52:50;;;;;;;111.78;34.67;;;;;;;;;;5030465;28;97133;-74
2021/12/15 21:55:20;;;;;;;113.85;38.75;;;;;;;;;;5031667;28;95189;-74
2021/12/15 21:57:46;;;;;;;102.75;34.65;;;;;;;;;;5031333;28;96781;-74
2021/12/15 22:00:15;;;;;;;109.03;35.58;;;;;;;;;;5031086;28;97112;-74
2021/12/15 22:02:42;;;;;;;108.40;34.28;;;;;;;;;;5030715;28;95876;-74
2021/12/15 22:05:10;;;;;;;105.63;34.55;;;;;;;;;;5033910;28;95768;-74
2021/12/15 22:07:36;;;;;;;102.32;34.92;;;;;;;;;;5031160;28;95316;-74
2021/12/15 22:10:04;;;;;;;118.03;34.38;;;;;;;;;;5035192;28;97014;-74
2021/12/15 22:12:30;;;;;;;119.63;37.53;;;;;;;;;;5034701;28;97292;-75
2021/12/15 22:14:58;;;;;;;118.30;36.10;;;;;;;;;;5034257;28;95257;-74
2021/12/15 22:17:24;;;;;;;126.40;35.58;;;;;;;;;;5033914;28;95584;-74
2021/12/15 22:19:51;;;;;;;125.75;35.88;;;;;;;;;;5034919;28;97292;-74
2021/12/15 22:22:18;;;;;;;114.45;35.75;;;;;;;;;;5033844;28;95329;-74
2021/12/15 22:24:44;;;;;;;130.18;36.00;;;;;;;;;;5034126;28;97168;-74
2021/12/15 22:27:10;;;;;;;112.35;34.05;;;;;;;;;;5037449;28;97382;-74
2021/12/15 22:29:40;;;;;;;117.90;34.65;;;;;;;;;;5035023;28;96784;-74
2021/12/15 22:32:30;;;;;;;118.38;36.53;;;;;;;;;;5033631;28;97541;-74
2021/12/15 22:34:56;;;;;;;109.68;34.40;;;;;;;;;;5033841;28;96975;-74
2021/12/15 22:37:23;;;;;;;137.52;37.60;;;;;;;;;;5034675;28;96834;-75
2021/12/15 22:39:50;;;;;;;110.00;34.15;;;;;;;;;;5034010;28;97474;-75
2021/12/15 22:42:20;;;;;;;116.15;35.85;;;;;;;;;;5034132;27;95509;-75
2021/12/15 22:44:46;;;;;;;124.97;37.15;;;;;;;;;;5034471;28;97167;-75
2021/12/15 22:47:16;;;;;;;134.57;36.70;;;;;;;;;;5033927;28;97092;-75
2021/12/15 22:49:42;;;;;;;140.52;37.22;;;;;;;;;;5037497;28;95290;-75
2021/12/15 22:52:10;;;;;;;123.15;36.13;;;;;;;;;;5033366;28;97284;-75
2021/12/15 22:54:36;;;;;;;127.90;38.55;;;;;;;;;;5034079;28;95348;-75
2021/12/15 22:57:07;;;;;;;140.68;36.65;;;;;;;;;;5034162;28;97178;-74
2021/12/15 22:59:34;;;;;;;151.02;40.15;;;;;;;;;;5034487;28;97648;-74
2021/12/15 23:02:02;;;;;;;132.68;35.17;;;;;;;;;;5033907;28;95202;-74
2021/12/15 23:04:29;;;;;;;142.80;38.42;;;;;;;;;;5032241;28;96836;-75
2021/12/15 23:07:00;;;;;;;139.63;35.95;;;;;;;;;;5033712;28;97203;-74
2021/12/15 23:09:26;;;;;;;172.73;38.45;;;;;;;;;;5033475;28;95154;-74
2021/12/15 23:12:07;;;;;;;130.43;35.78;;;;;;;;;;5036567;27;96880;-75
2021/12/15 23:14:39;;;;;;;131.07;36.05;;;;;;;;;;5034050;28;95227;-74
2021/12/15 23:17:06;;;;;;;161.80;37.95;;;;;;;;;;5033134;28;97033;-74
2021/12/15 23:19:33;;;;;;;201.07;40.53;;;;;;;;;;5033668;27;97322;-75
2021/12/15 23:21:59;;;;;;;188.15;37.13;;;;;;;;;;5033285;28;95446;-74
2021/12/15 23:24:26;;;;;;;196.13;37.90;;;;;;;;;;5033061;28;96825;-74